createdAt,value
2019-03-11T00:01:42.447Z,4.70
2019-03-11T00:04:10.440Z,4.70
2019-03-11T00:06:37.963Z,4.70
2019-03-11T00:09:05.532Z,4.70
2019-03-11T00:11:32.537Z,4.70
2019-03-11T00:13:59.455Z,4.70
2019-03-11T00:16:26.353Z,4.60
2019-03-11T00:18:53.150Z,4.60
2019-03-11T00:21:20.088Z,4.60
2019-03-11T00:23:47.200Z,4.70
2019-03-11T00:26:13.997Z,4.60
2019-03-11T00:28:40.906Z,4.60
2019-03-11T00:31:07.711Z,4.60
2019-03-11T00:33:34.637Z,4.60
2019-03-11T00:36:01.631Z,4.70
2019-03-11T00:38:28.616Z,4.70
2019-03-11T00:40:55.532Z,4.70
2019-03-11T00:43:22.579Z,4.70
2019-03-11T00:45:49.505Z,4.60
2019-03-11T00:48:16.296Z,4.60
2019-03-11T00:50:43.217Z,4.60
2019-03-11T00:53:11.085Z,4.50
2019-03-11T00:55:37.981Z,4.40
2019-03-11T00:58:04.888Z,4.30
2019-03-11T01:00:33.188Z,4.40
2019-03-11T01:03:00.100Z,4.40
2019-03-11T01:05:27.206Z,4.40
2019-03-11T01:07:54.205Z,4.50
2019-03-11T01:10:21.417Z,4.50
2019-03-11T01:12:48.317Z,4.60
2019-03-11T01:15:15.346Z,4.50
2019-03-11T01:17:42.244Z,4.60
2019-03-11T01:20:09.253Z,4.50
2019-03-11T01:22:36.250Z,4.50
2019-03-11T01:25:04.995Z,4.50
2019-03-11T01:27:32.377Z,4.50
2019-03-11T01:29:59.392Z,4.50
2019-03-11T01:32:26.402Z,4.50
2019-03-11T01:34:53.224Z,4.50
2019-03-11T01:37:20.115Z,4.50
2019-03-11T01:39:47.117Z,4.50
2019-03-11T01:42:14.110Z,4.40
2019-03-11T01:44:41.030Z,4.40
2019-03-11T01:47:08.038Z,4.30
2019-03-11T01:49:34.859Z,4.30
2019-03-11T01:52:01.772Z,4.30
2019-03-11T01:54:28.669Z,4.30
2019-03-11T01:56:55.577Z,4.30
2019-03-11T01:59:22.477Z,4.30
2019-03-11T02:01:49.485Z,4.30
2019-03-11T02:04:16.320Z,4.20
2019-03-11T02:06:43.229Z,4.20
2019-03-11T02:09:11.569Z,4.10
2019-03-11T02:11:38.592Z,4.10
2019-03-11T02:14:05.486Z,4.10
2019-03-11T02:16:32.494Z,4.10
2019-03-11T02:18:59.291Z,4.10
2019-03-11T02:21:26.218Z,4.10
2019-03-11T02:23:53.124Z,4.20
2019-03-11T02:26:20.028Z,4.20
2019-03-11T02:28:46.924Z,4.20
2019-03-11T02:31:13.813Z,4.20
2019-03-11T02:33:40.595Z,4.20
2019-03-11T02:36:07.502Z,4.20
2019-03-11T02:38:34.408Z,4.30
2019-03-11T02:41:01.408Z,4.30
2019-03-11T02:43:28.285Z,4.30
2019-03-11T02:45:55.098Z,4.30
2019-03-11T02:48:21.913Z,4.30
2019-03-11T02:50:48.687Z,4.40
2019-03-11T02:53:15.486Z,4.40
2019-03-11T02:55:42.281Z,4.40
2019-03-11T02:58:09.090Z,4.40
2019-03-11T03:00:36.084Z,4.50
2019-03-11T03:03:08.207Z,4.50
2019-03-11T03:05:39.860Z,4.60
2019-03-11T03:08:06.950Z,4.70
2019-03-11T03:10:33.853Z,4.70
2019-03-11T03:13:00.847Z,4.80
2019-03-11T03:15:27.741Z,4.90
2019-03-11T03:17:54.639Z,4.80
2019-03-11T03:20:21.528Z,4.80
2019-03-11T03:22:48.639Z,4.80
2019-03-11T03:25:15.643Z,4.70
2019-03-11T03:27:42.690Z,4.60
2019-03-11T03:30:14.498Z,4.50
2019-03-11T03:32:41.655Z,4.50
2019-03-11T03:35:08.924Z,4.50
2019-03-11T03:37:36.017Z,4.50
2019-03-11T03:40:04.222Z,4.50
2019-03-11T03:42:31.159Z,4.50
2019-03-11T03:45:26.779Z,4.60
2019-03-11T03:47:53.873Z,4.60
2019-03-11T03:50:20.782Z,4.50
2019-03-11T03:52:47.897Z,4.50
2019-03-11T03:55:14.931Z,4.40
2019-03-11T03:57:41.962Z,4.40
2019-03-11T04:00:08.957Z,4.30
2019-03-11T04:02:35.958Z,4.30
2019-03-11T04:05:03.164Z,4.20
2019-03-11T04:07:29.970Z,4.20
2019-03-11T04:09:56.958Z,4.20
2019-03-11T04:12:23.783Z,4.10
2019-03-11T04:14:50.983Z,4.10
2019-03-11T04:17:17.974Z,4.00
2019-03-11T04:19:44.985Z,3.90
2019-03-11T04:22:12.072Z,3.90
2019-03-11T04:24:38.975Z,3.90
2019-03-11T04:27:08.488Z,3.80
2019-03-11T04:29:35.388Z,3.80
2019-03-11T04:32:02.388Z,3.80
2019-03-11T04:34:29.199Z,3.90
2019-03-11T04:36:56.119Z,3.90
2019-03-11T04:39:22.940Z,3.80
2019-03-11T04:41:49.944Z,3.80
2019-03-11T04:44:16.830Z,3.80
2019-03-11T04:46:43.737Z,3.80
2019-03-11T04:49:10.637Z,3.80
2019-03-11T04:51:37.641Z,3.70
2019-03-11T04:54:04.450Z,3.80
2019-03-11T04:56:31.260Z,3.70
2019-03-11T04:59:09.133Z,3.70
2019-03-11T05:01:35.920Z,3.70
2019-03-11T05:04:02.918Z,3.70
2019-03-11T05:06:29.825Z,3.60
2019-03-11T05:08:56.729Z,3.60
2019-03-11T05:11:23.506Z,3.60
2019-03-11T05:13:50.425Z,3.60
2019-03-11T05:16:17.224Z,3.70
2019-03-11T05:18:44.036Z,3.70
2019-03-11T05:21:10.823Z,3.70
2019-03-11T05:23:37.733Z,3.70
2019-03-11T05:26:04.647Z,3.80
2019-03-11T05:28:31.562Z,3.80
2019-03-11T05:30:58.465Z,3.80
2019-03-11T05:33:25.367Z,3.90
2019-03-11T05:35:52.287Z,3.90
2019-03-11T05:38:19.185Z,4.00
2019-03-11T05:40:46.191Z,4.10
2019-03-11T05:43:12.995Z,4.10
2019-03-11T05:45:39.793Z,4.10
2019-03-11T05:48:06.585Z,4.10
2019-03-11T05:50:33.390Z,4.10
2019-03-11T05:53:00.326Z,4.00
2019-03-11T05:55:27.402Z,4.00
2019-03-11T05:57:54.188Z,4.00
2019-03-11T06:00:25.013Z,3.90
2019-03-11T06:02:51.999Z,3.90
2019-03-11T06:05:19.016Z,3.90
2019-03-11T06:07:46.015Z,3.90
2019-03-11T06:10:13.161Z,3.90
2019-03-11T06:12:40.162Z,3.90
2019-03-11T06:15:07.331Z,3.90
2019-03-11T06:17:34.271Z,3.90
2019-03-11T06:20:14.737Z,3.90
2019-03-11T06:22:41.529Z,3.90
2019-03-11T06:25:08.571Z,3.90
2019-03-11T06:27:35.562Z,3.90
2019-03-11T06:30:03.181Z,3.90
2019-03-11T06:32:30.073Z,3.90
2019-03-11T06:34:56.976Z,3.90
2019-03-11T06:37:23.894Z,3.90
2019-03-11T06:39:51.590Z,3.90
2019-03-11T06:42:18.387Z,3.90
2019-03-11T06:44:45.198Z,3.90
2019-03-11T06:47:12.085Z,3.90
2019-03-11T06:49:38.987Z,4.00
2019-03-11T06:52:05.983Z,4.00
2019-03-11T06:54:32.780Z,4.00
2019-03-11T06:56:59.578Z,4.00
2019-03-11T06:59:26.478Z,4.00
2019-03-11T07:01:53.391Z,4.00
2019-03-11T07:04:20.183Z,4.00
2019-03-11T07:06:47.001Z,4.00
2019-03-11T07:09:13.821Z,4.00
2019-03-11T07:11:40.781Z,3.90
2019-03-11T07:14:07.573Z,3.90
2019-03-11T07:16:34.577Z,3.90
2019-03-11T07:19:01.369Z,3.90
2019-03-11T07:21:28.254Z,3.90
2019-03-11T07:23:55.155Z,3.90
2019-03-11T07:26:21.973Z,3.90
2019-03-11T07:28:48.765Z,3.90
2019-03-11T07:31:15.761Z,3.90
2019-03-11T07:33:42.554Z,3.80
2019-03-11T07:36:09.627Z,3.80
2019-03-11T07:38:36.593Z,3.80
2019-03-11T07:41:03.602Z,3.80
2019-03-11T07:43:30.399Z,3.80
2019-03-11T07:45:57.300Z,3.80
2019-03-11T07:48:24.184Z,3.80
2019-03-11T07:50:51.093Z,3.80
2019-03-11T07:53:18.080Z,3.80
2019-03-11T07:55:44.886Z,3.60
2019-03-11T07:58:11.667Z,3.40
2019-03-11T08:00:38.666Z,3.20
2019-03-11T08:03:05.558Z,2.90
2019-03-11T08:05:32.557Z,2.80
2019-03-11T08:07:59.447Z,2.50
2019-03-11T08:10:26.362Z,2.20
2019-03-11T08:12:53.149Z,1.90
2019-03-11T08:15:20.155Z,1.70
2019-03-11T08:17:46.961Z,1.60
2019-03-11T08:20:14.094Z,1.50
2019-03-11T08:22:40.890Z,1.50
2019-03-11T08:25:07.901Z,2.00
2019-03-11T08:27:34.805Z,3.10
2019-03-11T08:30:01.632Z,4.40
2019-03-11T08:32:28.529Z,5.40
2019-03-11T08:34:55.411Z,6.40
2019-03-11T08:37:22.195Z,6.70
2019-03-11T08:39:48.986Z,7.30
2019-03-11T08:42:15.777Z,7.80
2019-03-11T08:44:42.679Z,7.90
2019-03-11T08:47:09.483Z,7.30
2019-03-11T08:49:36.262Z,6.70
2019-03-11T08:52:05.224Z,6.20
2019-03-11T08:54:31.958Z,5.70
2019-03-11T08:56:58.869Z,5.70
2019-03-11T08:59:25.778Z,6.10
2019-03-11T09:01:52.689Z,6.20
2019-03-11T09:04:19.693Z,6.20
2019-03-11T09:06:46.573Z,5.90
2019-03-11T09:09:13.460Z,5.60
2019-03-11T09:11:40.346Z,5.30
2019-03-11T09:14:07.271Z,5.00
2019-03-11T09:16:34.253Z,4.80
2019-03-11T09:19:01.041Z,4.70
2019-03-11T09:21:28.047Z,4.70
2019-03-11T09:23:54.853Z,4.70
2019-03-11T09:26:21.845Z,4.70
2019-03-11T09:28:48.737Z,4.90
2019-03-11T09:31:15.634Z,5.20
2019-03-11T09:33:42.610Z,5.50
2019-03-11T09:36:09.411Z,5.90
2019-03-11T09:38:36.190Z,6.20
2019-03-11T09:41:03.186Z,6.40
2019-03-11T09:43:29.970Z,6.60
2019-03-11T09:45:56.862Z,6.40
2019-03-11T09:48:23.669Z,6.20
2019-03-11T09:50:50.467Z,6.00
2019-03-11T09:53:17.354Z,6.20
2019-03-11T09:55:44.267Z,6.30
2019-03-11T09:58:11.173Z,6.40
2019-03-11T10:00:38.164Z,6.60
2019-03-11T10:03:05.138Z,7.00
2019-03-11T10:05:31.926Z,6.90
2019-03-11T10:07:59.049Z,6.60
2019-03-11T10:10:26.109Z,6.90
2019-03-11T10:12:52.905Z,7.40
2019-03-11T10:15:19.899Z,7.70
2019-03-11T10:17:46.889Z,7.90
2019-03-11T10:20:13.927Z,8.10
2019-03-11T10:22:40.974Z,7.80
2019-03-11T10:25:08.186Z,8.30
2019-03-11T10:27:35.118Z,8.50
2019-03-11T10:30:02.377Z,8.00
2019-03-11T10:32:29.173Z,7.60
2019-03-11T10:34:56.053Z,7.70
2019-03-11T10:37:23.048Z,7.90
2019-03-11T10:39:49.929Z,7.80
2019-03-11T10:42:16.818Z,7.40
2019-03-11T10:44:43.631Z,7.20
2019-03-11T10:47:10.713Z,7.00
2019-03-11T10:49:37.633Z,6.90
2019-03-11T10:52:07.188Z,6.80
2019-03-11T10:54:33.375Z,6.90
2019-03-11T10:57:00.300Z,6.80
2019-03-11T10:59:27.190Z,6.60
2019-03-11T11:01:54.109Z,7.00
2019-03-11T11:04:20.986Z,7.10
2019-03-11T11:06:47.782Z,7.00
2019-03-11T11:09:14.676Z,7.30
2019-03-11T11:11:41.593Z,7.20
2019-03-11T11:14:08.481Z,7.10
2019-03-11T11:16:35.372Z,6.90
2019-03-11T11:19:02.464Z,6.80
2019-03-11T11:21:29.263Z,7.50
2019-03-11T11:23:56.155Z,7.70
2019-03-11T11:26:23.048Z,8.30
2019-03-11T11:28:49.933Z,8.50
2019-03-11T11:31:16.937Z,7.80
2019-03-11T11:33:43.806Z,7.50
2019-03-11T11:36:10.602Z,7.30
2019-03-11T11:38:37.388Z,7.80
2019-03-11T11:41:04.387Z,8.20
2019-03-11T11:43:31.359Z,8.10
2019-03-11T11:45:58.261Z,8.30
2019-03-11T11:48:25.163Z,8.50
2019-03-11T11:50:51.938Z,8.50
2019-03-11T11:53:18.729Z,8.30
2019-03-11T11:55:45.626Z,7.90
2019-03-11T11:58:12.520Z,7.00
2019-03-11T12:00:41.356Z,6.10
2019-03-11T12:03:08.257Z,5.90
2019-03-11T12:05:35.263Z,6.70
2019-03-11T12:08:02.200Z,8.10
2019-03-11T12:10:29.343Z,9.20
2019-03-11T12:12:56.429Z,10.10
2019-03-11T12:15:23.405Z,10.30
2019-03-11T12:17:50.414Z,11.30
2019-03-11T12:20:19.130Z,11.40
2019-03-11T12:22:46.116Z,11.60
2019-03-11T12:25:14.554Z,11.50
2019-03-11T12:27:52.730Z,10.50
2019-03-11T12:30:13.709Z,10.30
2019-03-11T12:32:40.545Z,9.00
2019-03-11T12:35:08.177Z,7.80
2019-03-11T12:37:34.981Z,7.70
2019-03-11T12:40:01.776Z,8.20
2019-03-11T12:42:28.690Z,8.70
2019-03-11T12:44:55.498Z,9.00
2019-03-11T12:47:22.267Z,9.80
2019-03-11T12:49:49.069Z,10.00
2019-03-11T12:52:15.953Z,10.50
2019-03-11T12:54:42.869Z,10.80
2019-03-11T12:57:09.637Z,10.80
2019-03-11T12:59:40.510Z,11.20
2019-03-11T13:02:05.573Z,11.10
2019-03-11T13:04:32.470Z,11.00
2019-03-11T13:06:59.371Z,11.20
2019-03-11T13:09:26.284Z,10.90
2019-03-11T13:11:53.104Z,10.70
2019-03-11T13:14:19.920Z,11.00
2019-03-11T13:16:46.694Z,12.00
2019-03-11T13:19:13.817Z,11.50
2019-03-11T13:21:42.263Z,11.60
2019-03-11T13:24:09.270Z,11.40
2019-03-11T13:26:36.085Z,11.90
2019-03-11T13:29:03.106Z,11.50
2019-03-11T13:31:30.090Z,11.00
2019-03-11T13:33:56.888Z,10.70
2019-03-11T13:36:23.966Z,10.10
2019-03-11T13:38:50.883Z,9.20
2019-03-11T13:41:17.900Z,8.70
2019-03-11T13:43:44.880Z,9.30
2019-03-11T13:46:11.770Z,10.50
2019-03-11T13:48:38.750Z,11.00
2019-03-11T13:51:05.757Z,11.20
2019-03-11T13:53:32.630Z,10.80
2019-03-11T13:55:59.419Z,10.50
2019-03-11T13:58:26.213Z,10.70
2019-03-11T14:00:57.003Z,10.20
2019-03-11T14:03:26.678Z,10.60
2019-03-11T14:06:39.543Z,10.60
2019-03-11T14:09:09.361Z,10.60
2019-03-11T14:11:36.226Z,10.80
2019-03-11T14:14:03.232Z,10.50
2019-03-11T14:16:30.553Z,11.30
2019-03-11T14:18:57.429Z,11.00
2019-03-11T14:21:26.046Z,9.40
2019-03-11T14:23:52.999Z,9.30
2019-03-11T14:26:20.470Z,8.80
2019-03-11T14:28:47.354Z,8.50
2019-03-11T14:31:14.284Z,9.50
2019-03-11T14:33:41.099Z,9.70
2019-03-11T14:36:07.903Z,9.80
2019-03-11T14:38:34.892Z,9.30
2019-03-11T14:41:01.792Z,8.80
2019-03-11T14:43:28.589Z,8.40
2019-03-11T14:45:55.604Z,8.20
2019-03-11T14:48:22.388Z,8.60
2019-03-11T14:50:49.289Z,9.00
2019-03-11T14:53:16.265Z,9.50
2019-03-11T14:55:43.177Z,9.80
2019-03-11T14:58:09.979Z,9.60
2019-03-11T15:00:37.072Z,9.20
2019-03-11T15:03:04.057Z,9.20
2019-03-11T15:05:30.954Z,9.50
2019-03-11T15:07:57.835Z,9.90
2019-03-11T15:10:24.845Z,10.40
2019-03-11T15:12:51.814Z,10.00
2019-03-11T15:15:18.717Z,9.50
2019-03-11T15:17:45.695Z,9.30
2019-03-11T15:20:13.438Z,8.70
2019-03-11T15:22:40.427Z,8.20
2019-03-11T15:25:07.527Z,8.50
2019-03-11T15:27:34.522Z,8.10
2019-03-11T15:30:01.643Z,8.40
2019-03-11T15:32:28.548Z,8.60
2019-03-11T15:34:55.434Z,9.10
2019-03-11T15:37:22.643Z,9.40
2019-03-11T15:39:49.810Z,9.70
2019-03-11T15:42:16.814Z,10.10
2019-03-11T15:44:43.595Z,9.50
2019-03-11T15:47:10.577Z,8.50
2019-03-11T15:49:37.365Z,7.80
2019-03-11T15:52:04.274Z,7.40
2019-03-11T15:54:31.056Z,6.80
2019-03-11T15:56:57.847Z,6.00
2019-03-11T15:59:24.645Z,5.50
2019-03-11T16:01:51.717Z,5.00
2019-03-11T16:04:18.701Z,4.50
2019-03-11T16:06:45.588Z,4.10
2019-03-11T16:09:19.125Z,4.10
2019-03-11T16:11:41.425Z,4.60
2019-03-11T16:14:08.397Z,5.80
2019-03-11T16:16:35.291Z,7.10
2019-03-11T16:19:02.259Z,8.00
2019-03-11T16:21:29.178Z,8.30
2019-03-11T16:23:56.060Z,8.50
2019-03-11T16:26:22.969Z,9.10
2019-03-11T16:28:49.860Z,9.40
2019-03-11T16:31:16.683Z,9.90
2019-03-11T16:33:43.536Z,10.00
2019-03-11T16:36:10.555Z,9.30
2019-03-11T16:38:37.543Z,8.80
2019-03-11T16:41:04.453Z,8.40
2019-03-11T16:43:31.445Z,7.80
2019-03-11T16:45:58.440Z,6.90
2019-03-11T16:48:25.331Z,6.30
2019-03-11T16:50:52.360Z,5.60
2019-03-11T16:53:19.351Z,5.40
2019-03-11T16:55:47.340Z,5.20
2019-03-11T16:58:14.273Z,5.10
2019-03-11T17:00:41.960Z,5.00
2019-03-11T17:03:09.011Z,4.90
2019-03-11T17:05:36.041Z,4.80
2019-03-11T17:08:03.080Z,4.60
2019-03-11T17:10:30.401Z,4.50
2019-03-11T17:12:57.307Z,4.50
2019-03-11T17:15:24.176Z,4.50
2019-03-11T17:17:51.086Z,4.40
2019-03-11T17:20:18.379Z,4.40
2019-03-11T17:22:45.412Z,4.40
2019-03-11T17:25:12.641Z,4.30
2019-03-11T17:27:39.671Z,4.20
2019-03-11T17:30:08.764Z,4.20
2019-03-11T17:32:35.666Z,4.20
2019-03-11T17:35:03.187Z,4.20
2019-03-11T17:37:30.100Z,4.10
2019-03-11T17:39:57.086Z,4.10
2019-03-11T17:42:24.087Z,4.10
2019-03-11T17:44:51.199Z,4.10
2019-03-11T17:47:18.195Z,4.10
2019-03-11T17:49:44.986Z,4.10
2019-03-11T17:52:31.533Z,4.00
2019-03-11T17:54:58.330Z,3.90
2019-03-11T17:57:25.221Z,3.90
2019-03-11T17:59:52.061Z,3.90
2019-03-11T18:02:19.159Z,3.90
2019-03-11T18:04:45.946Z,3.90
2019-03-11T18:07:12.858Z,3.90
2019-03-11T18:09:39.747Z,3.80
2019-03-11T18:12:06.643Z,3.80
2019-03-11T18:14:33.661Z,3.80
2019-03-11T18:17:00.441Z,3.80
2019-03-11T18:19:27.341Z,3.90
2019-03-11T18:21:54.335Z,3.90
2019-03-11T18:24:21.241Z,4.00
2019-03-11T18:26:48.252Z,4.00
2019-03-11T18:29:15.176Z,3.90
2019-03-11T18:31:42.142Z,3.90
2019-03-11T18:34:08.978Z,3.90
2019-03-11T18:36:36.057Z,3.90
2019-03-11T18:39:05.104Z,3.90
2019-03-11T18:41:32.137Z,3.90
2019-03-11T18:43:59.221Z,3.90
2019-03-11T18:46:26.246Z,3.90
2019-03-11T18:48:53.136Z,3.90
2019-03-11T18:51:20.028Z,3.80
2019-03-11T18:53:46.824Z,3.80
2019-03-11T18:56:13.625Z,3.90
2019-03-11T18:58:40.518Z,4.00
2019-03-11T19:01:07.525Z,4.00
2019-03-11T19:03:34.476Z,4.10
2019-03-11T19:06:01.363Z,4.10
2019-03-11T19:08:28.366Z,4.10
2019-03-11T19:10:55.371Z,4.10
2019-03-11T19:13:22.426Z,4.10
2019-03-11T19:15:49.492Z,4.20
2019-03-11T19:18:16.451Z,4.20
2019-03-11T19:20:43.566Z,4.20
2019-03-11T19:23:10.521Z,4.20
2019-03-11T19:25:37.593Z,4.20
2019-03-11T19:28:04.639Z,4.20
2019-03-11T19:30:31.667Z,4.20
2019-03-11T19:32:58.571Z,4.20
2019-03-11T19:35:25.430Z,4.20
2019-03-11T19:37:52.441Z,4.10
2019-03-11T19:40:19.575Z,4.10
2019-03-11T19:42:46.613Z,4.20
2019-03-11T19:45:14.404Z,4.10
2019-03-11T19:47:41.342Z,4.10
2019-03-11T19:50:09.360Z,4.10
2019-03-11T19:52:36.179Z,4.00
2019-03-11T19:55:03.515Z,4.00
2019-03-11T19:57:30.515Z,3.90
2019-03-11T19:59:57.500Z,3.90
2019-03-11T20:02:24.594Z,3.80
2019-03-11T20:04:51.682Z,3.80
2019-03-11T20:07:18.626Z,3.80
2019-03-11T20:09:45.854Z,3.80
2019-03-11T20:12:12.946Z,3.90
2019-03-11T20:14:39.929Z,3.90
2019-03-11T20:17:06.938Z,3.80
2019-03-11T20:19:33.902Z,3.90
2019-03-11T20:22:00.799Z,3.90
2019-03-11T20:24:27.656Z,3.90
2019-03-11T20:26:54.621Z,3.90
2019-03-11T20:29:23.369Z,3.80
2019-03-11T20:31:50.318Z,3.80
2019-03-11T20:34:17.336Z,3.70
2019-03-11T20:36:44.397Z,3.70
2019-03-11T20:39:11.608Z,3.70
2019-03-11T20:41:38.613Z,3.70
2019-03-11T20:44:05.688Z,3.70
2019-03-11T20:46:32.649Z,3.60
2019-03-11T20:48:59.489Z,3.60
2019-03-11T20:51:26.362Z,3.60
2019-03-11T20:53:53.396Z,3.60
2019-03-11T20:56:20.449Z,3.50
2019-03-11T20:58:47.422Z,3.50
2019-03-11T21:01:14.286Z,3.60
2019-03-11T21:03:41.231Z,3.60
2019-03-11T21:06:08.238Z,3.60
2019-03-11T21:08:35.134Z,3.60
2019-03-11T21:11:02.112Z,3.60
2019-03-11T21:13:29.054Z,3.50
2019-03-11T21:15:56.045Z,3.50
2019-03-11T21:18:22.972Z,3.50
2019-03-11T21:20:49.920Z,3.60
2019-03-11T21:23:16.901Z,3.50
2019-03-11T21:25:43.885Z,3.50
2019-03-11T21:28:10.996Z,3.50
2019-03-11T21:30:37.931Z,3.50
2019-03-11T21:33:04.994Z,3.40
2019-03-11T21:35:32.091Z,3.40
2019-03-11T21:37:59.079Z,3.50
2019-03-11T21:40:26.244Z,3.50
2019-03-11T21:42:53.198Z,3.50
2019-03-11T21:45:33.048Z,3.40
2019-03-11T21:47:51.017Z,3.40
2019-03-11T21:50:19.177Z,3.40
2019-03-11T21:52:46.347Z,3.40
2019-03-11T21:55:13.393Z,3.40
2019-03-11T21:57:40.349Z,3.30
2019-03-11T22:00:10.197Z,3.30
2019-03-11T22:02:37.254Z,3.30
2019-03-11T22:05:04.373Z,3.30
2019-03-11T22:07:31.265Z,3.30
2019-03-11T22:09:58.091Z,3.30
2019-03-11T22:12:24.988Z,3.30
2019-03-11T22:14:52.018Z,3.30
2019-03-11T22:17:18.918Z,3.30
2019-03-11T22:19:45.818Z,3.30
2019-03-11T22:22:12.636Z,3.30
2019-03-11T22:24:39.645Z,3.40
2019-03-11T22:27:06.655Z,3.40
2019-03-11T22:29:33.458Z,3.30
2019-03-11T22:32:00.444Z,3.30
2019-03-11T22:34:27.353Z,3.20
2019-03-11T22:36:56.065Z,3.10
2019-03-11T22:39:22.942Z,3.20
2019-03-11T22:41:52.569Z,3.10
2019-03-11T22:44:18.692Z,3.20
2019-03-11T22:46:45.516Z,3.10
2019-03-11T22:49:12.305Z,3.10
2019-03-11T22:51:39.230Z,3.00
2019-03-11T22:54:06.024Z,3.00
2019-03-11T22:56:32.852Z,3.00
2019-03-11T22:58:59.764Z,3.00
2019-03-11T23:01:26.870Z,2.90
2019-03-11T23:03:53.770Z,2.90
2019-03-11T23:06:20.677Z,2.90
2019-03-11T23:08:47.651Z,2.90
2019-03-11T23:11:14.460Z,2.90
2019-03-11T23:13:41.258Z,2.90
2019-03-11T23:16:08.281Z,2.90
2019-03-11T23:18:35.170Z,2.90
2019-03-11T23:21:02.070Z,2.90
2019-03-11T23:23:28.859Z,2.90
2019-03-11T23:25:55.874Z,2.90
2019-03-11T23:28:22.902Z,2.90
2019-03-11T23:30:50.018Z,2.90
2019-03-11T23:33:17.025Z,3.00
2019-03-11T23:35:44.026Z,3.00
2019-03-11T23:38:11.134Z,3.00
2019-03-11T23:40:38.143Z,3.00
2019-03-11T23:43:05.162Z,3.00
2019-03-11T23:45:32.161Z,2.90
2019-03-11T23:47:59.075Z,2.90
2019-03-11T23:50:25.874Z,2.80
2019-03-11T23:52:52.664Z,2.80
2019-03-11T23:55:19.661Z,2.70
2019-03-11T23:57:46.469Z,2.80
